Time;durP1;ratioP1;P1;durP2;ratioP2;P2;SDS_P1;SDS_P2;PMS_P1;PMS_P2;Temp;Humidity;BMP_temperature;BMP_pressure;BME280_temperature;BME280_humidity;BME280_pressure;Samples;Min_cycle;Max_cycle;Signal;HPM_P1;HPM_P2
2022/01/26 00:07:07;;;;;;;35.83;11.68;;;5.10;99.90;;;;;;5015575;28;20048;-71
2022/01/26 00:09:33;;;;;;;40.05;12.45;;;5.10;99.90;;;;;;5015667;28;20470;-71
2022/01/26 00:11:58;;;;;;;44.58;12.25;;;5.10;99.90;;;;;;5015280;28;20482;-71
2022/01/26 00:14:24;;;;;;;52.17;15.18;;;5.10;99.90;;;;;;5015351;28;20528;-71
2022/01/26 00:16:49;;;;;;;43.50;13.60;;;5.10;99.90;;;;;;5015247;28;20538;-71
2022/01/26 00:19:24;;;;;;;44.83;13.00;;;5.00;99.90;;;;;;5015496;28;20022;-71
2022/01/26 00:21:52;;;;;;;44.00;12.75;;;5.00;99.90;;;;;;5015081;28;20080;-72
2022/01/26 00:29:32;;;;;;;43.47;13.35;;;5.00;99.90;;;;;;5015477;28;20033;-71
2022/01/26 00:40:39;;;;;;;38.28;12.32;;;5.00;99.90;;;;;;5014535;28;20072;-71
2022/01/26 00:43:21;;;;;;;38.45;12.45;;;5.00;99.90;;;;;;5014731;28;20033;-71
2022/01/26 00:45:49;;;;;;;40.53;12.70;;;5.00;99.90;;;;;;5015061;28;20064;-71
2022/01/26 00:48:20;;;;;;;40.92;11.77;;;5.00;99.90;;;;;;5014672;28;20040;-71
2022/01/26 00:50:50;;;;;;;43.83;13.10;;;4.90;99.90;;;;;;5014679;28;20026;-71
2022/01/26 00:53:16;;;;;;;39.72;12.68;;;4.90;99.90;;;;;;5014661;28;20026;-71
2022/01/26 00:55:42;;;;;;;41.13;13.40;;;4.90;99.90;;;;;;5014439;28;20022;-71
2022/01/26 00:58:08;;;;;;;41.25;14.95;;;4.90;99.90;;;;;;5014546;28;20033;-71
2022/01/26 01:00:33;;;;;;;49.22;14.57;;;4.90;99.90;;;;;;5014471;28;20030;-71
2022/01/26 01:03:01;;;;;;;49.42;15.63;;;4.90;99.90;;;;;;5014374;28;20474;-71
2022/01/26 01:05:33;;;;;;;50.85;15.23;;;4.90;99.90;;;;;;5014411;28;20013;-71
2022/01/26 01:08:07;;;;;;;51.28;16.38;;;4.90;99.90;;;;;;5014624;28;20054;-71
2022/01/26 01:10:33;;;;;;;50.65;15.93;;;4.90;99.90;;;;;;5014359;28;20032;-71
2022/01/26 01:13:00;;;;;;;41.63;15.88;;;4.90;99.90;;;;;;5014267;28;20474;-71
2022/01/26 01:15:27;;;;;;;59.10;17.48;;;4.90;99.90;;;;;;5014195;28;20029;-71
2022/01/26 01:18:04;;;;;;;58.45;16.92;;;4.80;99.90;;;;;;5014093;28;20026;-71
2022/01/26 01:21:01;;;;;;;63.40;20.13;;;4.80;99.90;;;;;;5014465;28;20034;-71
2022/01/26 01:31:28;;;;;;;62.00;19.52;;;4.90;99.90;;;;;;5013947;28;20156;-71
2022/01/26 01:33:53;;;;;;;66.22;20.70;;;4.90;99.90;;;;;;5014238;28;20482;-71
2022/01/26 01:36:21;;;;;;;65.45;19.95;;;4.90;99.90;;;;;;5013922;28;20140;-71
2022/01/26 01:38:47;;;;;;;57.78;18.92;;;4.90;99.90;;;;;;5013884;28;20022;-71
2022/01/26 01:41:12;;;;;;;61.88;18.23;;;4.90;99.90;;;;;;5013750;28;20030;-72
2022/01/26 01:43:38;;;;;;;73.07;22.60;;;4.80;99.90;;;;;;5013682;28;20040;-71
2022/01/26 01:46:05;;;;;;;76.85;22.08;;;4.80;99.90;;;;;;5013732;28;20022;-71
2022/01/26 01:48:32;;;;;;;74.68;20.20;;;4.70;99.90;;;;;;5013770;28;20018;-71
2022/01/26 01:51:01;;;;;;;64.22;20.58;;;4.80;99.90;;;;;;5012787;28;20433;-71
2022/01/26 01:54:00;;;;;;;70.28;22.63;;;4.80;99.90;;;;;;5013634;28;20060;-71
2022/01/26 01:56:23;;;;;;;86.60;24.63;;;4.80;99.90;;;;;;5010594;28;20092;-71
2022/01/26 01:58:48;;;;;;;78.63;23.50;;;4.80;99.90;;;;;;5013611;28;20104;-71
2022/01/26 02:01:14;;;;;;;59.72;20.63;;;4.80;99.90;;;;;;5014106;28;20160;-71
2022/01/26 02:03:40;;;;;;;73.43;23.67;;;4.90;99.90;;;;;;5013542;28;20061;-71
2022/01/26 02:06:05;;;;;;;85.18;24.80;;;4.80;99.90;;;;;;5013586;28;20026;-71
2022/01/26 02:08:31;;;;;;;73.05;24.10;;;4.80;99.90;;;;;;5013807;28;20022;-72
2022/01/26 02:10:56;;;;;;;73.55;22.48;;;4.80;99.90;;;;;;5013495;28;20053;-72
2022/01/26 02:14:10;;;;;;;83.72;25.17;;;4.80;99.90;;;;;;5013384;28;20057;-72
2022/01/26 02:19:02;;;;;;;75.65;24.08;;;4.80;99.90;;;;;;5013663;28;20038;-70
2022/01/26 02:54:36;;;;;;;87.68;26.38;;;4.70;99.90;;;;;;4982996;28;20073;-72
2022/01/26 02:57:15;;;;;;;85.65;26.80;;;4.70;99.90;;;;;;5012958;28;20088;-72
2022/01/26 03:00:14;;;;;;;87.28;26.13;;;4.70;99.90;;;;;;5013347;28;20045;-72
2022/01/26 03:05:10;;;;;;;77.75;28.30;;;4.70;99.90;;;;;;5016943;28;20022;-71
2022/01/26 03:07:43;;;;;;;82.10;25.73;;;4.70;99.90;;;;;;5016644;28;20022;-72
2022/01/26 03:10:19;;;;;;;82.53;26.05;;;4.70;99.90;;;;;;5016912;28;20462;-72
2022/01/26 03:12:52;;;;;;;66.50;27.02;;;4.70;99.90;;;;;;5016706;28;20026;-72
2022/01/26 03:15:32;;;;;;;69.22;24.33;;;4.70;99.90;;;;;;5016763;28;20464;-72
2022/01/26 03:20:32;;;;;;;72.80;28.00;;;4.70;99.90;;;;;;5016910;28;20029;-72
2022/01/26 03:28:40;;;;;;;89.05;29.77;;;4.70;99.90;;;;;;5016572;28;20369;-72
2022/01/26 03:33:51;;;;;;;86.78;28.30;;;4.70;99.90;;;;;;5016003;28;20026;-71
2022/01/26 03:36:17;;;;;;;111.13;29.27;;;4.70;99.90;;;;;;5016388;28;20054;-71
2022/01/26 03:38:50;;;;;;;106.65;32.08;;;4.70;99.90;;;;;;5016017;28;20415;-71
2022/01/26 03:43:50;;;;;;;92.93;28.83;;;4.70;99.90;;;;;;5015766;28;20037;-71
2022/01/26 03:46:16;;;;;;;84.32;28.48;;;4.70;99.90;;;;;;5016129;28;20378;-71
2022/01/26 03:48:41;;;;;;;97.90;32.28;;;4.70;99.90;;;;;;4998248;28;20022;-71
2022/01/26 03:51:07;;;;;;;92.32;32.85;;;4.70;99.90;;;;;;5016241;28;20065;-71
2022/01/26 03:53:32;;;;;;;95.22;31.95;;;4.70;99.90;;;;;;5015629;28;20026;-71
2022/01/26 03:55:58;;;;;;;91.07;31.58;;;4.70;99.90;;;;;;5015678;28;20034;-71
2022/01/26 03:58:24;;;;;;;95.38;33.70;;;4.70;99.90;;;;;;5015650;28;20394;-71
2022/01/26 04:00:49;;;;;;;93.13;32.90;;;4.60;99.90;;;;;;5015492;28;20026;-71
2022/01/26 04:03:15;;;;;;;104.25;35.85;;;4.60;99.90;;;;;;5015508;28;20394;-71
2022/01/26 04:05:41;;;;;;;97.72;33.72;;;4.60;99.90;;;;;;5015475;28;20076;-71
2022/01/26 04:08:13;;;;;;;93.57;34.75;;;4.60;99.90;;;;;;5015463;28;20030;-71
2022/01/26 04:13:23;;;;;;;95.65;34.47;;;4.60;99.90;;;;;;5014761;28;20044;-71
2022/01/26 04:15:49;;;;;;;87.82;33.90;;;4.60;99.90;;;;;;5015010;28;20026;-71
2022/01/26 04:18:19;;;;;;;102.30;37.78;;;4.60;99.90;;;;;;5015264;28;20466;-71
2022/01/26 04:20:49;;;;;;;110.70;41.70;;;4.60;99.90;;;;;;5015474;28;20030;-71
2022/01/26 04:25:43;;;;;;;100.78;37.45;;;4.50;99.90;;;;;;5015438;28;20532;-71
2022/01/26 04:28:13;;;;;;;103.38;38.58;;;4.50;99.90;;;;;;5015123;28;20021;-71
2022/01/26 04:30:39;;;;;;;114.15;39.55;;;4.50;99.90;;;;;;5015338;28;20026;-71
2022/01/26 04:33:06;;;;;;;102.10;39.33;;;4.50;99.90;;;;;;5014957;28;20543;-71
2022/01/26 04:35:32;;;;;;;116.20;40.42;;;4.50;99.90;;;;;;5014926;28;20486;-71
2022/01/26 04:41:21;;;;;;;122.53;42.38;;;4.40;99.90;;;;;;4935487;29;20534;-71
2022/01/26 04:43:51;;;;;;;104.28;39.40;;;4.50;99.90;;;;;;5010361;28;20083;-71
2022/01/26 04:46:17;;;;;;;101.22;36.95;;;4.50;99.90;;;;;;5015065;28;20072;-71
2022/01/26 04:48:42;;;;;;;123.40;40.35;;;4.40;99.90;;;;;;5014674;28;20022;-71
2022/01/26 04:51:08;;;;;;;96.38;36.75;;;4.40;99.90;;;;;;5015202;28;20033;-71
2022/01/26 04:53:33;;;;;;;97.70;36.75;;;4.40;99.90;;;;;;5014538;28;20032;-71
2022/01/26 04:55:59;;;;;;;95.90;37.20;;;4.40;99.90;;;;;;5014697;28;20100;-71
2022/01/26 04:58:24;;;;;;;94.80;35.08;;;4.30;99.90;;;;;;5014542;28;20168;-71
2022/01/26 05:00:50;;;;;;;100.07;36.40;;;4.30;99.90;;;;;;5014904;28;20073;-71
2022/01/26 05:03:16;;;;;;;97.60;37.80;;;4.30;99.90;;;;;;5014420;28;20042;-71
2022/01/26 05:05:41;;;;;;;105.05;35.50;;;4.30;99.90;;;;;;5014379;28;20026;-71
2022/01/26 05:08:07;;;;;;;91.68;33.75;;;4.30;99.90;;;;;;5014640;28;20037;-71
2022/01/26 05:10:34;;;;;;;97.18;35.97;;;4.30;99.90;;;;;;5014850;28;20034;-71
2022/01/26 05:13:00;;;;;;;92.43;35.17;;;4.30;99.90;;;;;;5014460;28;20057;-71
2022/01/26 05:15:26;;;;;;;108.00;35.40;;;4.30;99.90;;;;;;4996616;28;20030;-71
2022/01/26 05:17:52;;;;;;;86.70;33.42;;;4.40;99.90;;;;;;5014189;28;20026;-71
2022/01/26 05:20:18;;;;;;;100.65;36.88;;;4.40;99.90;;;;;;5014107;28;20025;-71
2022/01/26 05:22:44;;;;;;;79.13;32.88;;;4.40;99.90;;;;;;5014375;28;20044;-71
2022/01/26 05:25:11;;;;;;;90.88;34.35;;;4.40;99.90;;;;;;5014114;28;20022;-71
2022/01/26 05:27:37;;;;;;;110.15;37.30;;;4.40;99.90;;;;;;5014018;28;20029;-71
2022/01/26 05:30:04;;;;;;;98.15;35.85;;;4.30;99.90;;;;;;5014230;28;20018;-71
2022/01/26 05:32:29;;;;;;;106.07;35.95;;;4.30;99.90;;;;;;5013770;28;20026;-71
2022/01/26 05:34:55;;;;;;;107.85;35.35;;;4.40;99.90;;;;;;5013923;28;20436;-71
2022/01/26 05:37:21;;;;;;;94.10;35.35;;;4.40;99.90;;;;;;5013920;28;20025;-71
2022/01/26 05:39:46;;;;;;;90.55;33.47;;;4.40;99.90;;;;;;5013836;28;20025;-71
2022/01/26 05:42:12;;;;;;;81.93;33.72;;;4.40;99.90;;;;;;5013704;28;20033;-71
2022/01/26 05:44:38;;;;;;;84.88;33.88;;;4.40;99.90;;;;;;5014114;28;20028;-71
2022/01/26 05:47:06;;;;;;;103.72;38.05;;;4.30;99.90;;;;;;5014031;28;20014;-71
2022/01/26 05:49:32;;;;;;;78.78;33.10;;;4.30;99.90;;;;;;5013827;28;20022;-71
2022/01/26 05:51:58;;;;;;;94.22;38.70;;;4.30;99.90;;;;;;5014045;28;20397;-71
2022/01/26 05:54:23;;;;;;;93.05;36.17;;;4.30;99.90;;;;;;5013932;28;20530;-71
2022/01/26 05:56:49;;;;;;;86.13;35.92;;;4.30;99.90;;;;;;5013643;28;20114;-71
2022/01/26 05:59:16;;;;;;;100.88;39.15;;;4.30;99.90;;;;;;5013614;28;20437;-71
2022/01/26 06:01:42;;;;;;;97.18;38.13;;;4.40;99.90;;;;;;5013684;28;20034;-71
2022/01/26 06:04:08;;;;;;;97.85;38.88;;;4.30;99.90;;;;;;5013640;28;20026;-71
2022/01/26 06:06:34;;;;;;;93.78;40.03;;;4.40;99.90;;;;;;5013760;28;20060;-71
2022/01/26 06:08:59;;;;;;;101.68;38.60;;;4.40;99.90;;;;;;5013598;28;20022;-71
2022/01/26 06:11:25;;;;;;;95.78;40.35;;;4.40;99.90;;;;;;5013520;28;20034;-71
2022/01/26 06:13:50;;;;;;;91.90;40.55;;;4.30;99.90;;;;;;5013978;28;20448;-71
2022/01/26 06:16:16;;;;;;;88.53;40.78;;;4.40;99.90;;;;;;5013978;28;20080;-71
2022/01/26 06:18:43;;;;;;;89.68;38.67;;;4.40;99.90;;;;;;5013449;28;20022;-71
2022/01/26 06:21:10;;;;;;;94.07;38.30;;;4.40;99.90;;;;;;5013352;28;20018;-71
2022/01/26 06:23:35;;;;;;;91.47;40.08;;;4.40;99.90;;;;;;5013320;28;20026;-71
2022/01/26 06:26:01;;;;;;;103.32;42.30;;;4.40;99.90;;;;;;5013385;28;20109;-71
2022/01/26 06:28:27;;;;;;;102.10;42.55;;;4.40;99.90;;;;;;5013325;28;20474;-71
2022/01/26 06:30:59;;;;;;;99.18;43.03;;;4.40;99.90;;;;;;5013317;28;20030;-71
2022/01/26 06:33:25;;;;;;;101.53;44.45;;;4.40;99.90;;;;;;5013542;28;20109;-71
2022/01/26 06:35:51;;;;;;;97.28;40.60;;;4.40;99.90;;;;;;5013527;28;20104;-71
2022/01/26 06:38:17;;;;;;;115.30;46.00;;;4.30;99.90;;;;;;5015994;28;20057;-71
2022/01/26 06:40:43;;;;;;;101.72;44.05;;;4.40;99.90;;;;;;5017289;28;20069;-71
2022/01/26 06:43:14;;;;;;;112.80;45.90;;;4.40;99.90;;;;;;5016901;28;20029;-71
2022/01/26 06:45:51;;;;;;;113.35;46.85;;;4.30;99.90;;;;;;5017273;28;20018;-71
2022/01/26 06:51:01;;;;;;;111.60;43.85;;;4.30;99.90;;;;;;5017268;28;20445;-71
2022/01/26 06:53:27;;;;;;;133.38;47.75;;;4.30;99.90;;;;;;5016870;28;20026;-71
2022/01/26 06:55:52;;;;;;;111.50;43.95;;;4.30;99.90;;;;;;5016812;28;20034;-71
2022/01/26 06:58:18;;;;;;;120.30;45.20;;;4.30;99.90;;;;;;5016776;28;20033;-71
2022/01/26 07:00:43;;;;;;;117.03;45.40;;;4.30;99.90;;;;;;5016661;28;20061;-71
2022/01/26 07:03:09;;;;;;;123.60;46.60;;;4.30;99.90;;;;;;5016607;28;20430;-71
2022/01/26 07:05:35;;;;;;;123.95;45.63;;;4.30;99.90;;;;;;4999004;28;20429;-70
2022/01/26 07:08:02;;;;;;;120.68;43.28;;;4.30;99.90;;;;;;5016617;28;20022;-69
2022/01/26 07:10:28;;;;;;;123.05;42.95;;;4.30;99.90;;;;;;5017137;28;20427;-69
2022/01/26 07:12:53;;;;;;;118.32;42.67;;;4.30;99.90;;;;;;5016425;28;20068;-69
2022/01/26 07:23:39;;;;;;;112.88;42.20;;;4.20;99.90;;;;;;5016778;28;20437;-69
2022/01/26 07:26:05;;;;;;;120.90;42.17;;;4.20;99.90;;;;;;5016534;28;20034;-69
2022/01/26 07:28:35;;;;;;;123.70;44.42;;;4.20;99.90;;;;;;5016211;28;20072;-69
2022/01/26 07:31:01;;;;;;;128.10;43.25;;;4.20;99.90;;;;;;5016747;28;20105;-69
2022/01/26 07:33:27;;;;;;;128.07;42.47;;;4.20;99.90;;;;;;5016036;28;20038;-69
2022/01/26 07:35:52;;;;;;;138.77;43.83;;;4.20;99.90;;;;;;5016059;28;20028;-69
2022/01/26 07:38:19;;;;;;;145.98;42.45;;;4.20;99.90;;;;;;5016032;28;20372;-69
2022/01/26 07:40:44;;;;;;;132.23;41.05;;;4.20;99.90;;;;;;5016101;28;20423;-69
2022/01/26 07:43:10;;;;;;;132.20;43.58;;;4.20;99.90;;;;;;5015942;28;20110;-69
2022/01/26 07:45:35;;;;;;;134.90;42.22;;;4.20;99.90;;;;;;5015869;28;20025;-69
2022/01/26 07:48:01;;;;;;;133.25;43.58;;;4.20;99.90;;;;;;5015812;28;20026;-69
2022/01/26 07:50:26;;;;;;;127.47;40.08;;;4.20;99.90;;;;;;5015806;28;20497;-69
2022/01/26 07:52:52;;;;;;;136.82;41.80;;;4.10;99.90;;;;;;5015699;28;20033;-69
2022/01/26 07:55:20;;;;;;;125.13;39.20;;;4.20;99.90;;;;;;5015983;28;20041;-69
2022/01/26 07:57:48;;;;;;;117.85;39.38;;;4.20;99.90;;;;;;5015712;28;20018;-69
2022/01/26 08:00:15;;;;;;;135.07;39.85;;;4.20;99.90;;;;;;5015839;28;20018;-69
2022/01/26 08:02:42;;;;;;;127.28;39.70;;;4.20;99.90;;;;;;5016035;28;20032;-69
2022/01/26 08:05:08;;;;;;;134.05;39.63;;;4.20;99.90;;;;;;5015520;28;20021;-69
2022/01/26 08:07:34;;;;;;;127.28;40.85;;;4.20;99.90;;;;;;5015431;28;20474;-69
2022/01/26 08:10:00;;;;;;;128.13;39.90;;;4.20;99.90;;;;;;5015426;28;20030;-69
2022/01/26 08:12:25;;;;;;;132.38;39.30;;;4.20;99.90;;;;;;5015522;28;20029;-69
2022/01/26 08:14:51;;;;;;;140.63;41.90;;;4.20;99.90;;;;;;5015622;28;20030;-70
2022/01/26 08:17:17;;;;;;;134.40;41.95;;;4.20;99.90;;;;;;5015302;28;20105;-70
2022/01/26 08:19:42;;;;;;;130.20;42.00;;;4.20;99.90;;;;;;5015824;28;20056;-70
2022/01/26 08:22:08;;;;;;;129.60;39.90;;;4.20;99.90;;;;;;5015098;28;20033;-69
2022/01/26 08:24:34;;;;;;;136.25;41.13;;;4.20;99.90;;;;;;5015725;28;20450;-69
2022/01/26 08:27:08;;;;;;;149.02;40.75;;;4.20;99.90;;;;;;5015387;28;20026;-69
2022/01/26 08:29:41;;;;;;;134.85;42.25;;;4.20;99.90;;;;;;5015101;28;20123;-69
2022/01/26 08:32:07;;;;;;;136.68;40.33;;;4.20;99.90;;;;;;5015196;28;20030;-69
2022/01/26 08:34:33;;;;;;;151.13;42.20;;;4.20;99.90;;;;;;5015236;28;20543;-69
2022/01/26 08:36:58;;;;;;;132.15;42.28;;;4.20;99.90;;;;;;5015415;28;20034;-69
2022/01/26 08:39:24;;;;;;;140.57;45.60;;;4.20;99.90;;;;;;5014912;28;20390;-69
2022/01/26 08:41:50;;;;;;;144.93;43.58;;;4.20;99.90;;;;;;5014867;28;20394;-69
2022/01/26 08:44:16;;;;;;;158.82;48.60;;;4.30;99.90;;;;;;5015635;28;20038;-68
2022/01/26 08:46:41;;;;;;;155.07;45.50;;;4.20;99.90;;;;;;5014740;28;20022;-68
2022/01/26 08:49:07;;;;;;;149.48;43.97;;;4.30;99.90;;;;;;5014710;28;20033;-68
2022/01/26 08:51:33;;;;;;;163.18;43.45;;;4.30;99.90;;;;;;4997043;28;20389;-68
2022/01/26 08:53:59;;;;;;;150.20;46.38;;;4.30;99.90;;;;;;5014896;28;20033;-68
2022/01/26 08:56:25;;;;;;;174.18;45.95;;;4.30;99.90;;;;;;5014586;28;20030;-68
2022/01/26 08:58:52;;;;;;;177.02;47.13;;;4.30;99.90;;;;;;5014523;28;20061;-68
2022/01/26 09:01:18;;;;;;;177.90;46.50;;;4.30;99.90;;;;;;5013959;28;20109;-68
2022/01/26 09:03:43;;;;;;;167.10;46.58;;;4.30;99.90;;;;;;5014444;28;20453;-68
2022/01/26 09:06:09;;;;;;;172.35;49.10;;;4.30;99.90;;;;;;5014510;28;20101;-68
2022/01/26 09:08:41;;;;;;;165.40;47.42;;;4.40;99.90;;;;;;5014389;28;20022;-68
2022/01/26 09:11:08;;;;;;;157.68;49.33;;;4.40;99.90;;;;;;5014671;28;20044;-68
2022/01/26 09:13:35;;;;;;;186.13;49.72;;;4.40;99.90;;;;;;5014285;28;20026;-68
2022/01/26 09:16:03;;;;;;;190.45;48.95;;;4.40;99.90;;;;;;5014249;28;20028;-68
2022/01/26 09:18:39;;;;;;;180.13;49.63;;;4.30;99.90;;;;;;5014751;28;20083;-68
2022/01/26 09:21:06;;;;;;;171.52;51.17;;;4.40;99.90;;;;;;5014457;28;20022;-68
2022/01/26 09:23:32;;;;;;;187.80;55.58;;;4.40;99.90;;;;;;5014009;28;20026;-68
2022/01/26 09:25:58;;;;;;;185.63;52.97;;;4.40;99.90;;;;;;5014352;28;20462;-68
2022/01/26 09:28:24;;;;;;;193.02;53.20;;;4.40;99.90;;;;;;5014341;28;20109;-68
2022/01/26 09:30:50;;;;;;;194.50;54.38;;;4.40;99.90;;;;;;5013977;28;20393;-68
2022/01/26 09:33:16;;;;;;;193.88;53.55;;;4.50;99.90;;;;;;5013913;28;20022;-68
2022/01/26 09:35:42;;;;;;;170.77;51.90;;;4.50;99.90;;;;;;5013909;28;20037;-68
2022/01/26 09:38:07;;;;;;;178.35;49.95;;;4.50;99.90;;;;;;4996354;28;20532;-68
2022/01/26 09:40:33;;;;;;;179.00;49.85;;;4.50;99.90;;;;;;5013799;28;20026;-68
2022/01/26 09:42:59;;;;;;;170.52;48.63;;;4.60;99.90;;;;;;5013641;28;20486;-68
2022/01/26 09:45:25;;;;;;;182.90;48.17;;;4.60;99.90;;;;;;5014110;28;20533;-68
2022/01/26 09:47:51;;;;;;;142.57;45.60;;;4.60;99.90;;;;;;5013746;28;20116;-68
2022/01/26 09:50:16;;;;;;;145.35;45.28;;;4.60;99.90;;;;;;5013791;28;20029;-68
2022/01/26 09:52:47;;;;;;;138.40;40.63;;;4.60;99.90;;;;;;5014236;28;20492;-68
2022/01/26 09:55:14;;;;;;;145.20;41.17;;;4.60;99.90;;;;;;5014194;28;20447;-68
2022/01/26 09:57:42;;;;;;;148.65;41.33;;;4.60;99.90;;;;;;5013945;28;20076;-68
2022/01/26 10:00:09;;;;;;;147.07;40.78;;;4.60;99.90;;;;;;5014191;28;20021;-68
2022/01/26 10:02:35;;;;;;;136.15;39.58;;;4.60;99.90;;;;;;5013363;28;20030;-68
2022/01/26 10:05:08;;;;;;;121.63;35.88;;;4.70;99.90;;;;;;5013609;28;20029;-68
2022/01/26 10:10:28;;;;;;;139.93;38.45;;;4.80;99.90;;;;;;5014049;28;20102;-68
2022/01/26 10:15:40;;;;;;;118.03;33.22;;;4.80;99.90;;;;;;5017920;28;20493;-68
2022/01/26 10:18:16;;;;;;;121.28;33.90;;;4.80;99.90;;;;;;5017853;28;20104;-68
2022/01/26 10:20:50;;;;;;;131.43;34.50;;;4.90;99.90;;;;;;5017426;28;20106;-68
2022/01/26 10:23:19;;;;;;;103.68;30.83;;;5.00;99.90;;;;;;5017518;28;20049;-68
2022/01/26 10:26:07;;;;;;;111.90;31.40;;;5.00;99.90;;;;;;5017637;28;20030;-68
2022/01/26 10:28:54;;;;;;;92.45;27.20;;;5.00;99.90;;;;;;5003560;28;20379;-69
2022/01/26 10:31:20;;;;;;;100.25;27.63;;;5.00;99.90;;;;;;5018193;28;20386;-68
2022/01/26 10:34:16;;;;;;;85.20;24.08;;;5.00;99.90;;;;;;5017179;28;20054;-68
2022/01/26 10:36:51;;;;;;;92.32;26.20;;;5.10;99.90;;;;;;4989058;28;20121;-68
2022/01/26 10:39:37;;;;;;;82.70;26.65;;;5.10;99.90;;;;;;5017158;28;20032;-68
2022/01/26 10:42:09;;;;;;;79.15;23.98;;;5.10;99.90;;;;;;5017120;28;20049;-68
2022/01/26 10:44:46;;;;;;;87.70;25.55;;;5.00;99.90;;;;;;5017516;28;20105;-69
2022/01/26 10:47:11;;;;;;;75.70;22.40;;;5.00;99.90;;;;;;5017042;28;20068;-68
2022/01/26 10:52:34;;;;;;;80.13;21.92;;;5.00;99.90;;;;;;5017180;28;20029;-69
2022/01/26 10:55:00;;;;;;;73.63;23.63;;;5.00;99.90;;;;;;5017182;28;20026;-68
2022/01/26 10:57:26;;;;;;;80.70;21.98;;;5.00;99.90;;;;;;5016832;28;20033;-68
2022/01/26 10:59:52;;;;;;;68.72;19.70;;;5.10;99.90;;;;;;5016777;28;20030;-71
2022/01/26 11:02:25;;;;;;;79.30;19.98;;;5.00;99.90;;;;;;5016623;28;20549;-71
2022/01/26 11:04:50;;;;;;;74.03;20.25;;;5.00;99.90;;;;;;5017015;28;20072;-71
2022/01/26 11:07:16;;;;;;;80.50;21.38;;;5.10;99.90;;;;;;5016677;28;20026;-71
2022/01/26 11:09:47;;;;;;;74.65;18.77;;;5.00;99.90;;;;;;5016568;28;20052;-71
2022/01/26 11:12:15;;;;;;;84.13;21.15;;;5.00;99.90;;;;;;5016491;28;20108;-71
2022/01/26 11:14:56;;;;;;;77.63;22.33;;;5.00;99.90;;;;;;5016794;28;20033;-71
2022/01/26 11:17:29;;;;;;;73.40;21.95;;;5.00;99.90;;;;;;5016662;28;20068;-71
2022/01/26 11:19:57;;;;;;;82.13;20.70;;;5.00;99.90;;;;;;5016707;28;20037;-71
2022/01/26 11:22:29;;;;;;;85.90;22.15;;;5.00;99.90;;;;;;5016512;28;20496;-71
2022/01/26 11:25:07;;;;;;;81.18;24.08;;;5.10;99.90;;;;;;5016402;28;20025;-71
2022/01/26 11:27:34;;;;;;;73.53;25.38;;;5.00;99.90;;;;;;5016549;28;20029;-71
2022/01/26 11:30:01;;;;;;;82.75;25.42;;;5.10;99.90;;;;;;5016479;28;20026;-71
2022/01/26 11:32:34;;;;;;;103.07;27.33;;;5.10;99.90;;;;;;4998582;28;20041;-71
2022/01/26 11:35:04;;;;;;;97.07;28.98;;;5.10;99.90;;;;;;5016193;28;20022;-71
2022/01/26 11:37:40;;;;;;;111.00;30.42;;;5.10;99.90;;;;;;5016331;28;20485;-71
2022/01/26 11:45:34;;;;;;;119.97;30.33;;;5.00;99.90;;;;;;5016225;28;20022;-71
2022/01/26 11:48:08;;;;;;;100.18;28.70;;;5.10;99.90;;;;;;5015960;28;20033;-71
2022/01/26 11:50:39;;;;;;;115.38;28.88;;;5.10;99.90;;;;;;5016157;28;20025;-71
2022/01/26 11:53:07;;;;;;;105.95;26.70;;;5.10;99.90;;;;;;5015755;28;20029;-70
2022/01/26 11:55:42;;;;;;;97.32;27.60;;;5.10;99.90;;;;;;5015765;28;20018;-71
2022/01/26 11:58:17;;;;;;;97.63;28.42;;;5.10;99.90;;;;;;5015725;28;20045;-70
2022/01/26 12:03:21;;;;;;;109.32;28.13;;;5.20;99.90;;;;;;5015600;28;20053;-71
2022/01/26 12:05:48;;;;;;;99.82;26.60;;;5.20;99.90;;;;;;5015508;28;20026;-71
2022/01/26 12:08:14;;;;;;;102.00;26.50;;;5.20;99.90;;;;;;4998012;28;20046;-71
2022/01/26 12:10:44;;;;;;;118.70;30.13;;;5.20;99.90;;;;;;5015686;28;20061;-71
2022/01/26 12:13:15;;;;;;;110.20;31.27;;;5.30;99.90;;;;;;5015363;28;20089;-71
2022/01/26 12:15:54;;;;;;;99.10;31.27;;;5.30;99.90;;;;;;5015629;28;20033;-71
2022/01/26 12:18:28;;;;;;;116.38;33.45;;;5.30;99.90;;;;;;5015427;28;20025;-71
2022/01/26 12:35:06;;;;;;;92.78;27.17;;;5.40;99.90;;;;;;5014744;28;20040;-71
2022/01/26 12:43:38;;;;;;;101.28;26.15;;;5.50;99.90;;;;;;5015449;28;20048;-70
2022/01/26 12:46:07;;;;;;;98.57;25.63;;;5.50;99.90;;;;;;5014797;28;20022;-70
2022/01/26 12:48:34;;;;;;;108.53;27.77;;;5.50;99.90;;;;;;5014885;28;20504;-70
2022/01/26 12:51:02;;;;;;;89.28;25.40;;;5.50;99.90;;;;;;5014730;28;20254;-70
2022/01/26 12:53:29;;;;;;;97.78;25.85;;;5.50;99.90;;;;;;5014998;28;20022;-70
2022/01/26 12:56:00;;;;;;;104.47;26.15;;;5.50;99.90;;;;;;5014634;28;20026;-70
2022/01/26 12:58:28;;;;;;;104.75;26.83;;;5.50;99.90;;;;;;5014918;28;20021;-70
2022/01/26 13:01:03;;;;;;;101.07;25.63;;;5.50;99.90;;;;;;5014681;28;20523;-70
2022/01/26 13:03:34;;;;;;;90.82;24.80;;;5.60;99.90;;;;;;5014498;28;20029;-70
2022/01/26 13:06:08;;;;;;;102.43;26.65;;;5.60;99.90;;;;;;5014801;28;20025;-70
2022/01/26 13:09:15;;;;;;;84.97;23.92;;;5.60;99.90;;;;;;5014343;28;20018;-70
2022/01/26 13:11:40;;;;;;;74.25;24.27;;;5.60;99.90;;;;;;4975600;28;20100;-70
2022/01/26 13:14:18;;;;;;;89.78;22.17;;;5.70;99.90;;;;;;5014290;28;20022;-70
2022/01/26 13:17:14;;;;;;;98.00;23.05;;;5.70;99.90;;;;;;4996720;28;20029;-70
2022/01/26 13:25:15;;;;;;;87.25;22.23;;;5.80;99.90;;;;;;5014149;28;20418;-70
2022/01/26 13:28:06;;;;;;;76.75;23.88;;;5.80;99.90;;;;;;5014086;28;20018;-71
2022/01/26 13:43:14;;;;;;;82.72;22.48;;;5.80;99.90;;;;;;4980679;28;20386;-71
2022/01/26 13:53:46;;;;;;;89.88;22.55;;;5.80;99.90;;;;;;4983444;28;20049;-71
2022/01/26 13:59:11;;;;;;;92.68;24.58;;;5.80;99.90;;;;;;4976916;28;20042;-72
2022/01/26 14:01:42;;;;;;;99.05;26.58;;;5.80;99.90;;;;;;5013912;28;20029;-71
2022/01/26 14:04:07;;;;;;;81.90;23.58;;;5.80;99.90;;;;;;5014044;28;20030;-71
2022/01/26 14:06:33;;;;;;;66.30;22.75;;;5.80;99.90;;;;;;5014054;28;20085;-72
2022/01/26 14:08:59;;;;;;;82.00;27.73;;;5.80;99.90;;;;;;5013705;28;20102;-71
2022/01/26 14:11:24;;;;;;;90.82;23.42;;;5.90;99.90;;;;;;5013708;28;20080;-72
2022/01/26 14:13:54;;;;;;;65.57;21.92;;;5.80;99.90;;;;;;5013647;28;20445;-71
2022/01/26 14:16:21;;;;;;;65.82;23.33;;;5.90;99.90;;;;;;5013554;28;20084;-71
2022/01/26 14:19:01;;;;;;;66.05;18.05;;;5.90;99.90;;;;;;5013532;28;20026;-71
2022/01/26 14:21:42;;;;;;;73.55;18.42;;;5.90;99.90;;;;;;4995823;28;20060;-71
2022/01/26 14:26:36;;;;;;;74.22;19.27;;;6.00;99.90;;;;;;5013757;28;20076;-71
2022/01/26 14:29:07;;;;;;;60.67;19.05;;;5.90;99.90;;;;;;5013730;28;20018;-72
2022/01/26 14:31:51;;;;;;;76.75;16.52;;;6.00;99.90;;;;;;5013551;28;20026;-72
2022/01/26 14:40:05;;;;;;;53.80;17.10;;;6.10;99.90;;;;;;5013672;28;20079;-70
2022/01/26 15:08:42;;;;;;;84.65;16.10;;;6.20;99.90;;;;;;5016879;28;20049;-68
2022/01/26 15:10:19;;;;;;;;;;;6.30;99.90;;;;;;5017027;28;20109;-67
2022/01/26 15:44:28;;;;;;;83.95;22.83;;;6.20;99.90;;;;;;5015952;28;20069;-67
2022/01/26 15:52:43;;;;;;;57.15;17.73;;;6.20;99.90;;;;;;5016097;28;20044;-67
2022/01/26 15:57:54;;;;;;;61.83;17.98;;;6.20;99.90;;;;;;5016135;28;20051;-68
2022/01/26 16:06:15;;;;;;;63.28;15.32;;;6.20;99.90;;;;;;5010559;28;20040;-67
2022/01/26 16:16:58;;;;;;;54.55;13.95;;;6.20;99.90;;;;;;5015759;28;20164;-67
2022/01/26 16:38:20;;;;;;;71.13;20.73;;;6.20;99.90;;;;;;5015406;28;19920;-68
2022/01/26 17:03:27;;;;;;;24.90;6.47;;;6.20;99.90;;;;;;5014614;28;19916;-68
2022/01/26 17:11:11;;;;;;;;;;;6.30;99.90;;;;;;5014967;28;20080;-68
2022/01/26 17:11:25;;;;;;;31.90;6.07;;;6.20;99.90;;;;;;5014350;28;19972;-68
2022/01/26 18:05:50;;;;;;;34.83;9.35;;;6.20;99.90;;;;;;5013959;28;20441;-68
2022/01/26 18:14:28;;;;;;;44.42;9.70;;;6.20;99.90;;;;;;5013754;28;20041;-67
2022/01/26 18:32:17;;;;;;;40.45;8.25;;;6.20;99.90;;;;;;5014017;28;20037;-69
2022/01/26 18:51:09;;;;;;;50.72;8.90;;;6.20;99.90;;;;;;5017153;28;19913;-71
2022/01/26 18:53:35;;;;;;;35.92;8.65;;;6.20;99.90;;;;;;5017513;28;20445;-69
2022/01/26 18:56:00;;;;;;;38.75;8.65;;;6.20;99.90;;;;;;5016962;28;20026;-70
2022/01/26 18:58:26;;;;;;;37.92;9.43;;;6.20;99.90;;;;;;5017318;28;20485;-72
2022/01/26 19:00:51;;;;;;;31.55;7.90;;;6.20;99.90;;;;;;5016808;28;20020;-71
2022/01/26 19:03:18;;;;;;;41.05;10.18;;;6.20;99.90;;;;;;5016917;28;20045;-71
2022/01/26 19:05:44;;;;;;;50.63;9.98;;;6.20;99.90;;;;;;5016725;28;20025;-70
2022/01/26 19:08:10;;;;;;;43.15;8.65;;;6.20;99.90;;;;;;5016747;28;20477;-71